Time,TemperatureF,DewpointF,PressureIn,WindDirection,WindDirectionDegrees,WindSpeedMPH,WindSpeedGustMPH,Humidity,HourlyPrecipIn,Conditions,Clouds,dailyrainin,SolarRadiationWatts/m^2,SoftwareType,DateUTC
2013-08-03 00:22:00,60.0,51.0,-100.00,East,85,6.0,9.0,71,0.00,,,0.00,0.000000,,2013-08-03 05:22:00,
2013-08-03 00:32:00,60.0,51.0,-100.00,East,85,6.0,9.0,71,0.00,,,0.00,0.000000,,2013-08-03 05:32:00,
2013-08-03 00:42:00,60.0,51.0,-100.00,East,85,6.0,9.0,71,0.00,,,0.00,0.000000,,2013-08-03 05:42:00,
2013-08-03 00:52:00,60.0,51.0,-100.00,East,85,6.0,9.0,71,0.00,,,0.00,0.000000,,2013-08-03 05:52:00,
2013-08-03 01:22:00,60.0,51.0,-100.00,ESE,118,4.0,7.0,71,0.00,,,0.00,0.000000,,2013-08-03 06:22:00,
2013-08-03 01:32:00,60.0,51.0,-100.00,ESE,118,4.0,7.0,71,0.00,,,0.00,0.000000,,2013-08-03 06:32:00,
2013-08-03 01:42:00,60.0,51.0,-100.00,ESE,118,4.0,7.0,71,0.00,,,0.00,0.000000,,2013-08-03 06:42:00,
2013-08-03 01:52:00,60.0,51.0,-100.00,ESE,118,4.0,7.0,71,0.00,,,0.00,0.000000,,2013-08-03 06:52:00,
2013-08-03 02:22:00,60.0,51.0,-100.00,East,92,5.0,6.0,73,0.00,,,0.00,0.000000,,2013-08-03 07:22:00,
2013-08-03 02:32:00,60.0,51.0,-100.00,East,92,5.0,6.0,73,0.00,,,0.00,0.000000,,2013-08-03 07:32:00,
2013-08-03 02:43:00,60.0,51.0,-100.00,East,92,5.0,6.0,73,0.00,,,0.00,0.000000,,2013-08-03 07:43:00,
2013-08-03 02:52:00,60.0,51.0,-100.00,East,92,5.0,6.0,73,0.00,,,0.00,0.000000,,2013-08-03 07:52:00,
2013-08-03 03:22:00,60.0,49.0,-100.00,East,86,4.0,6.0,68,0.00,,,0.00,0.000000,,2013-08-03 08:22:00,
2013-08-03 03:32:00,60.0,49.0,-100.00,East,86,4.0,6.0,68,0.00,,,0.00,0.000000,,2013-08-03 08:32:00,
2013-08-03 03:43:00,60.0,49.0,-100.00,East,86,4.0,6.0,68,0.00,,,0.00,0.000000,,2013-08-03 08:43:00,
2013-08-03 03:52:00,60.0,49.0,-100.00,East,86,4.0,6.0,68,0.00,,,0.00,0.000000,,2013-08-03 08:52:00,
2013-08-03 04:32:00,60.0,48.0,-100.00,East,82,5.0,6.0,65,-99.99,,,0.00,0.000000,,2013-08-03 09:32:00,
2013-08-03 05:22:00,59.0,46.0,-100.00,ENE,67,5.0,7.0,63,0.00,,,0.00,0.000000,,2013-08-03 10:22:00,
2013-08-03 05:32:00,59.0,46.0,-100.00,ENE,67,5.0,7.0,63,0.00,,,0.00,0.000000,,2013-08-03 10:32:00,
2013-08-03 05:42:00,59.0,46.0,-100.00,ENE,67,5.0,7.0,63,0.00,,,0.00,0.000000,,2013-08-03 10:42:00,
2013-08-03 05:53:00,59.0,46.0,-100.00,ENE,67,5.0,7.0,63,0.00,,,0.00,0.000000,,2013-08-03 10:53:00,
2013-08-03 06:32:00,59.0,50.0,-100.00,ENE,62,5.0,7.0,71,-99.99,,,0.00,0.000000,,2013-08-03 11:32:00,
2013-08-03 06:43:00,59.0,50.0,-100.00,ENE,62,5.0,7.0,71,-99.99,,,0.00,0.000000,,2013-08-03 11:43:00,
2013-08-03 06:53:00,59.0,50.0,-100.00,ENE,62,5.0,7.0,71,-99.99,,,0.00,0.000000,,2013-08-03 11:53:00,
2013-08-03 07:33:00,58.0,49.0,-100.00,NE,38,5.0,7.0,71,-99.99,,,0.00,20.000000,,2013-08-03 12:33:00,
2013-08-03 07:43:00,58.0,49.0,-100.00,NE,38,5.0,7.0,71,-99.99,,,0.00,20.000000,,2013-08-03 12:43:00,
2013-08-03 07:52:00,58.0,49.0,-100.00,NE,38,5.0,7.0,71,-99.99,,,0.00,20.000000,,2013-08-03 12:52:00,
2013-08-03 10:32:00,67.0,54.0,-100.00,ENE,59,8.0,11.0,63,0.00,,,0.00,117.000000,,2013-08-03 15:32:00,
2013-08-03 10:43:00,67.0,54.0,-100.00,ENE,59,8.0,11.0,63,0.00,,,0.00,117.000000,,2013-08-03 15:43:00,
2013-08-03 10:53:00,67.0,54.0,-100.00,ENE,59,8.0,11.0,63,0.00,,,0.00,117.000000,,2013-08-03 15:53:00,
2013-08-03 11:23:00,68.0,54.0,-100.00,NE,46,9.0,13.0,61,0.00,,,0.00,420.000000,,2013-08-03 16:23:00,
2013-08-03 11:33:00,68.0,54.0,-100.00,NE,46,9.0,13.0,61,0.00,,,0.00,420.000000,,2013-08-03 16:33:00,
2013-08-03 11:43:00,68.0,54.0,-100.00,NE,46,9.0,13.0,61,0.00,,,0.00,420.000000,,2013-08-03 16:43:00,
2013-08-03 11:53:00,68.0,54.0,-100.00,NE,46,9.0,13.0,61,0.00,,,0.00,420.000000,,2013-08-03 16:53:00,
2013-08-03 12:22:00,69.0,54.0,-100.00,ENE,64,11.0,15.0,59,0.00,,,0.00,875.000000,,2013-08-03 17:22:00,
2013-08-03 12:32:00,69.0,54.0,-100.00,ENE,64,11.0,15.0,59,0.00,,,0.00,875.000000,,2013-08-03 17:32:00,
2013-08-03 12:43:00,69.0,54.0,-100.00,ENE,64,11.0,15.0,59,0.00,,,0.00,875.000000,,2013-08-03 17:43:00,
2013-08-03 12:52:00,69.0,54.0,-100.00,ENE,64,11.0,15.0,59,0.00,,,0.00,875.000000,,2013-08-03 17:52:00,
2013-08-03 13:22:00,70.0,53.0,-100.00,ENE,57,9.0,15.0,55,0.00,,,0.00,951.000000,,2013-08-03 18:22:00,
2013-08-03 13:32:00,70.0,53.0,-100.00,ENE,57,9.0,15.0,55,0.00,,,0.00,951.000000,,2013-08-03 18:32:00,
2013-08-03 13:42:00,70.0,53.0,-100.00,ENE,57,9.0,15.0,55,0.00,,,0.00,951.000000,,2013-08-03 18:42:00,
2013-08-03 13:52:00,70.0,53.0,-100.00,ENE,57,9.0,15.0,55,0.00,,,0.00,951.000000,,2013-08-03 18:52:00,
2013-08-03 14:22:00,70.0,52.0,-100.00,NE,35,10.0,16.0,52,0.00,,,0.00,1002.000000,,2013-08-03 19:22:00,
2013-08-03 14:32:00,70.0,52.0,-100.00,NE,35,10.0,16.0,52,0.00,,,0.00,1002.000000,,2013-08-03 19:32:00,
2013-08-03 14:43:00,70.0,52.0,-100.00,NE,35,10.0,16.0,52,0.00,,,0.00,1002.000000,,2013-08-03 19:43:00,
2013-08-03 14:52:00,70.0,52.0,-100.00,NE,35,10.0,16.0,52,0.00,,,0.00,1002.000000,,2013-08-03 19:52:00,
2013-08-03 15:22:00,72.0,53.0,-100.00,NNE,20,7.0,14.0,52,0.00,,,0.00,989.000000,,2013-08-03 20:22:00,
2013-08-03 15:32:00,72.0,53.0,-100.00,NNE,20,7.0,14.0,52,0.00,,,0.00,989.000000,,2013-08-03 20:32:00,
2013-08-03 15:42:00,72.0,53.0,-100.00,NNE,20,7.0,14.0,52,0.00,,,0.00,989.000000,,2013-08-03 20:42:00,
2013-08-03 15:52:00,72.0,53.0,-100.00,NNE,20,7.0,14.0,52,0.00,,,0.00,989.000000,,2013-08-03 20:52:00,
2013-08-03 16:22:00,71.0,52.0,-100.00,NE,35,8.0,13.0,51,0.00,,,0.00,815.000000,,2013-08-03 21:22:00,
2013-08-03 16:32:00,71.0,52.0,-100.00,NE,35,8.0,13.0,51,0.00,,,0.00,815.000000,,2013-08-03 21:32:00,
2013-08-03 16:42:00,71.0,52.0,-100.00,NE,35,8.0,13.0,51,0.00,,,0.00,815.000000,,2013-08-03 21:42:00,
2013-08-03 16:52:00,71.0,52.0,-100.00,NE,35,8.0,13.0,51,0.00,,,0.00,815.000000,,2013-08-03 21:52:00,
2013-08-03 17:22:00,71.0,51.0,-100.00,NNE,26,6.0,12.0,50,0.00,,,0.00,650.000000,,2013-08-03 22:22:00,
2013-08-03 17:33:00,71.0,51.0,-100.00,NNE,26,6.0,12.0,50,0.00,,,0.00,650.000000,,2013-08-03 22:33:00,
2013-08-03 17:43:00,71.0,51.0,-100.00,NNE,26,6.0,12.0,50,0.00,,,0.00,650.000000,,2013-08-03 22:43:00,
2013-08-03 17:52:00,71.0,51.0,-100.00,NNE,26,6.0,12.0,50,0.00,,,0.00,650.000000,,2013-08-03 22:52:00,
2013-08-03 18:22:00,71.0,52.0,-100.00,NNE,26,8.0,12.0,51,0.00,,,0.00,520.000000,,2013-08-03 23:22:00,
2013-08-03 18:32:00,71.0,52.0,-100.00,NNE,26,8.0,12.0,51,0.00,,,0.00,520.000000,,2013-08-03 23:32:00,
2013-08-03 18:42:00,71.0,52.0,-100.00,NNE,26,8.0,12.0,51,0.00,,,0.00,520.000000,,2013-08-03 23:42:00,
2013-08-03 18:52:00,71.0,52.0,-100.00,NNE,26,8.0,12.0,51,0.00,,,0.00,520.000000,,2013-08-03 23:52:00,
2013-08-03 19:22:00,70.0,51.0,-100.00,NE,39,8.0,12.0,51,0.00,,,0.00,343.000000,,2013-08-04 00:22:00,
2013-08-03 19:32:00,70.0,51.0,-100.00,NE,39,8.0,12.0,51,0.00,,,0.00,343.000000,,2013-08-04 00:32:00,
2013-08-03 19:42:00,70.0,51.0,-100.00,NE,39,8.0,12.0,51,0.00,,,0.00,343.000000,,2013-08-04 00:42:00,
2013-08-03 19:52:00,70.0,51.0,-100.00,NE,39,8.0,12.0,51,0.00,,,0.00,343.000000,,2013-08-04 00:52:00,
2013-08-03 20:22:00,68.0,48.0,-100.00,ENE,66,5.0,10.0,49,0.00,,,0.00,174.000000,,2013-08-04 01:22:00,
2013-08-03 20:32:00,68.0,48.0,-100.00,ENE,66,5.0,10.0,49,0.00,,,0.00,174.000000,,2013-08-04 01:32:00,
2013-08-03 20:42:00,68.0,48.0,-100.00,ENE,66,5.0,10.0,49,0.00,,,0.00,174.000000,,2013-08-04 01:42:00,
2013-08-03 20:52:00,68.0,48.0,-100.00,ENE,66,5.0,10.0,49,0.00,,,0.00,174.000000,,2013-08-04 01:52:00,
2013-08-03 21:22:00,63.0,49.0,-100.00,East,84,5.0,8.0,60,0.00,,,0.00,24.000000,,2013-08-04 02:22:00,
2013-08-03 21:32:00,63.0,49.0,-100.00,East,84,5.0,8.0,60,0.00,,,0.00,24.000000,,2013-08-04 02:32:00,
2013-08-03 21:42:00,63.0,49.0,-100.00,East,84,5.0,8.0,60,0.00,,,0.00,24.000000,,2013-08-04 02:42:00,
2013-08-03 21:52:00,63.0,49.0,-100.00,East,84,5.0,8.0,60,0.00,,,0.00,24.000000,,2013-08-04 02:52:00,
2013-08-03 22:22:00,62.0,48.0,-100.00,ENE,70,7.0,9.0,61,0.00,,,0.00,0.000000,,2013-08-04 03:22:00,
2013-08-03 22:32:00,62.0,48.0,-100.00,ENE,70,7.0,9.0,61,0.00,,,0.00,0.000000,,2013-08-04 03:32:00,
2013-08-03 22:42:00,62.0,48.0,-100.00,ENE,70,7.0,9.0,61,0.00,,,0.00,0.000000,,2013-08-04 03:42:00,
2013-08-03 22:52:00,62.0,48.0,-100.00,ENE,70,7.0,9.0,61,0.00,,,0.00,0.000000,,2013-08-04 03:52:00,
2013-08-03 23:22:00,60.0,48.0,-100.00,ENE,76,7.0,11.0,65,0.00,,,0.00,0.000000,,2013-08-04 04:22:00,
2013-08-03 23:32:00,60.0,48.0,-100.00,ENE,76,7.0,11.0,65,0.00,,,0.00,0.000000,,2013-08-04 04:32:00,
2013-08-03 23:42:00,60.0,48.0,-100.00,ENE,76,7.0,11.0,65,0.00,,,0.00,0.000000,,2013-08-04 04:42:00,
2013-08-03 23:52:00,60.0,48.0,-100.00,ENE,76,7.0,11.0,65,0.00,,,0.00,0.000000,,2013-08-04 04:52:00,